sensor_id;sensor_type;location;lat;lon;timestamp;pressure;altitude;pressure_sealevel;temperature;humidity
64827;BME280;51265;53.972;12.286;2022-11-20T00:01:15;100379.56;;;-0.71;100.00
64827;BME280;51265;53.972;12.286;2022-11-20T00:03:42;100379.56;;;-0.71;100.00
64827;BME280;51265;53.972;12.286;2022-11-20T00:06:11;100385.78;;;-0.70;100.00
64827;BME280;51265;53.972;12.286;2022-11-20T00:08:37;100385.88;;;-0.77;100.00
64827;BME280;51265;53.972;12.286;2022-11-20T00:11:08;100388.56;;;-0.77;100.00
64827;BME280;51265;53.972;12.286;2022-11-20T00:13:36;100386.97;;;-0.66;100.00
64827;BME280;51265;53.972;12.286;2022-11-20T00:16:03;100390.44;;;-0.47;100.00
64827;BME280;51265;53.972;12.286;2022-11-20T00:18:30;100398.53;;;-0.47;100.00
64827;BME280;51265;53.972;12.286;2022-11-20T00:21:06;100398.34;;;-0.46;100.00
64827;BME280;51265;53.972;12.286;2022-11-20T00:23:33;100392.06;;;-0.58;100.00
64827;BME280;51265;53.972;12.286;2022-11-20T00:26:07;100395.19;;;-0.73;100.00
64827;BME280;51265;53.972;12.286;2022-11-20T00:28:33;100395.06;;;-0.78;100.00
64827;BME280;51265;53.972;12.286;2022-11-20T00:31:20;100397.44;;;-0.70;100.00
64827;BME280;51265;53.972;12.286;2022-11-20T00:33:46;100389.63;;;-0.78;100.00
64827;BME280;51265;53.972;12.286;2022-11-20T00:36:24;100395.50;;;-0.81;100.00
64827;BME280;51265;53.972;12.286;2022-11-20T00:38:52;100394.31;;;-0.85;100.00
64827;BME280;51265;53.972;12.286;2022-11-20T00:41:18;100394.75;;;-0.88;100.00
64827;BME280;51265;53.972;12.286;2022-11-20T00:43:44;100392.91;;;-0.88;100.00
64827;BME280;51265;53.972;12.286;2022-11-20T00:46:16;100397.63;;;-0.83;100.00
64827;BME280;51265;53.972;12.286;2022-11-20T00:48:43;100392.66;;;-0.86;100.00
64827;BME280;51265;53.972;12.286;2022-11-20T00:51:12;100394.22;;;-0.79;100.00
64827;BME280;51265;53.972;12.286;2022-11-20T00:53:39;100393.84;;;-0.82;100.00
64827;BME280;51265;53.972;12.286;2022-11-20T00:56:06;100387.63;;;-0.83;100.00
64827;BME280;51265;53.972;12.286;2022-11-20T00:58:38;100393.63;;;-0.81;100.00
64827;BME280;51265;53.972;12.286;2022-11-20T01:03:38;100400.31;;;-0.83;100.00
64827;BME280;51265;53.972;12.286;2022-11-20T01:06:19;100397.63;;;-0.83;100.00
64827;BME280;51265;53.972;12.286;2022-11-20T01:08:47;100404.06;;;-0.84;100.00
64827;BME280;51265;53.972;12.286;2022-11-20T01:11:15;100400.91;;;-0.81;100.00
64827;BME280;51265;53.972;12.286;2022-11-20T01:13:43;100406.75;;;-0.84;100.00
64827;BME280;51265;53.972;12.286;2022-11-20T01:18:42;100405.94;;;-0.85;100.00
64827;BME280;51265;53.972;12.286;2022-11-20T01:21:11;100399.25;;;-0.82;100.00
64827;BME280;51265;53.972;12.286;2022-11-20T01:23:40;100397.16;;;-0.80;100.00
64827;BME280;51265;53.972;12.286;2022-11-20T01:26:12;100395.06;;;-0.78;100.00
64827;BME280;51265;53.972;12.286;2022-11-20T01:28:40;100399.84;;;-0.80;100.00
64827;BME280;51265;53.972;12.286;2022-11-20T01:31:17;100395.75;;;-0.83;100.00
64827;BME280;51265;53.972;12.286;2022-11-20T01:33:45;100395.06;;;-0.78;100.00
64827;BME280;51265;53.972;12.286;2022-11-20T01:36:12;100393.41;;;-0.79;100.00
64827;BME280;51265;53.972;12.286;2022-11-20T01:38:39;100397.75;;;-0.78;100.00
64827;BME280;51265;53.972;12.286;2022-11-20T01:41:05;100402.56;;;-0.80;100.00
64827;BME280;51265;53.972;12.286;2022-11-20T01:43:32;100409.47;;;-0.84;100.00
64827;BME280;51265;53.972;12.286;2022-11-20T01:46:12;100405.00;;;-0.90;100.00
64827;BME280;51265;53.972;12.286;2022-11-20T01:49:00;100406.75;;;-0.96;100.00
64827;BME280;51265;53.972;12.286;2022-11-20T01:51:50;100402.00;;;-1.01;100.00
64827;BME280;51265;53.972;12.286;2022-11-20T01:54:23;100402.16;;;-0.95;100.00
64827;BME280;51265;53.972;12.286;2022-11-20T01:56:51;100393.72;;;-0.87;100.00
64827;BME280;51265;53.972;12.286;2022-11-20T01:59:22;100394.03;;;-0.95;100.00
64827;BME280;51265;53.972;12.286;2022-11-20T02:01:50;100390.72;;;-0.97;100.00
64827;BME280;51265;53.972;12.286;2022-11-20T02:04:16;100395.06;;;-0.96;100.00
64827;BME280;51265;53.972;12.286;2022-11-20T02:06:47;100399.22;;;-0.94;100.00
64827;BME280;51265;53.972;12.286;2022-11-20T02:09:17;100382.16;;;-0.94;100.00
64827;BME280;51265;53.972;12.286;2022-11-20T02:11:43;100387.72;;;-0.89;100.00
64827;BME280;51265;53.972;12.286;2022-11-20T02:14:09;100393.56;;;-0.92;100.00
64827;BME280;51265;53.972;12.286;2022-11-20T02:16:54;100392.66;;;-0.86;100.00
64827;BME280;51265;53.972;12.286;2022-11-20T02:19:28;100396.44;;;-0.87;100.00
64827;BME280;51265;53.972;12.286;2022-11-20T02:22:17;100398.16;;;-0.93;100.00
64827;BME280;51265;53.972;12.286;2022-11-20T02:24:46;100391.34;;;-0.95;100.00
64827;BME280;51265;53.972;12.286;2022-11-20T02:27:15;100395.06;;;-0.96;100.00
64827;BME280;51265;53.972;12.286;2022-11-20T02:32:22;100397.19;;;-0.98;100.00
64827;BME280;51265;53.972;12.286;2022-11-20T02:34:48;100401.53;;;-0.97;100.00
64827;BME280;51265;53.972;12.286;2022-11-20T02:37:15;100403.88;;;-1.01;100.00
64827;BME280;51265;53.972;12.286;2022-11-20T02:39:41;100391.66;;;-1.04;100.00
64827;BME280;51265;53.972;12.286;2022-11-20T02:42:09;100399.75;;;-1.04;100.00
64827;BME280;51265;53.972;12.286;2022-11-20T02:44:35;100396.25;;;-1.04;100.00
64827;BME280;51265;53.972;12.286;2022-11-20T02:47:01;100395.75;;;-1.01;100.00
64827;BME280;51265;53.972;12.286;2022-11-20T02:49:27;100397.78;;;-0.96;100.00
64827;BME280;51265;53.972;12.286;2022-11-20T02:51:53;100393.28;;;-1.03;100.00
64827;BME280;51265;53.972;12.286;2022-11-20T02:54:19;100398.69;;;-1.03;100.00
64827;BME280;51265;53.972;12.286;2022-11-20T02:56:45;100402.00;;;-1.01;100.00
64827;BME280;51265;53.972;12.286;2022-11-20T02:59:11;100398.69;;;-1.03;100.00
64827;BME280;51265;53.972;12.286;2022-11-20T03:01:37;100401.41;;;-1.03;100.00
64827;BME280;51265;53.972;12.286;2022-11-20T03:04:04;100405.31;;;-0.98;100.00
64827;BME280;51265;53.972;12.286;2022-11-20T03:06:34;100401.41;;;-1.03;100.00
64827;BME280;51265;53.972;12.286;2022-11-20T03:09:00;100405.88;;;-0.96;100.00
64827;BME280;51265;53.972;12.286;2022-11-20T03:11:26;100400.66;;;-0.91;100.00
64827;BME280;51265;53.972;12.286;2022-11-20T03:13:52;100405.69;;;-0.95;100.00
64827;BME280;51265;53.972;12.286;2022-11-20T03:16:21;100406.31;;;-0.81;100.00
64827;BME280;51265;53.972;12.286;2022-11-20T03:18:47;100404.16;;;-0.91;100.00
64827;BME280;51265;53.972;12.286;2022-11-20T03:21:14;100405.88;;;-0.96;100.00
64827;BME280;51265;53.972;12.286;2022-11-20T03:23:41;100405.69;;;-0.95;100.00
64827;BME280;51265;53.972;12.286;2022-11-20T03:26:27;100412.97;;;-0.95;100.00
64827;BME280;51265;53.972;12.286;2022-11-20T03:28:55;100406.94;;;-0.97;100.00
64827;BME280;51265;53.972;12.286;2022-11-20T03:31:30;100409.06;;;-0.99;100.00
64827;BME280;51265;53.972;12.286;2022-11-20T03:33:58;100394.94;;;-1.02;100.00
64827;BME280;51265;53.972;12.286;2022-11-20T03:36:24;100403.88;;;-1.01;100.00
64827;BME280;51265;53.972;12.286;2022-11-20T03:38:52;100405.75;;;-1.02;100.00
64827;BME280;51265;53.972;12.286;2022-11-20T03:41:20;100405.75;;;-1.02;100.00
64827;BME280;51265;53.972;12.286;2022-11-20T03:43:48;100407.41;;;-1.01;100.00
64827;BME280;51265;53.972;12.286;2022-11-20T03:46:15;100406.50;;;-0.94;100.00
64827;BME280;51265;53.972;12.286;2022-11-20T03:48:41;100411.28;;;-0.96;100.00
64827;BME280;51265;53.972;12.286;2022-11-20T03:51:27;100406.38;;;-0.99;100.00
64827;BME280;51265;53.972;12.286;2022-11-20T03:53:56;100410.72;;;-0.98;100.00
64827;BME280;51265;53.972;12.286;2022-11-20T03:56:25;100418.78;;;-0.80;100.00
64827;BME280;51265;53.972;12.286;2022-11-20T03:58:51;100406.06;;;-0.91;100.00
64827;BME280;51265;53.972;12.286;2022-11-20T04:01:22;100412.34;;;-0.97;100.00
64827;BME280;51265;53.972;12.286;2022-11-20T04:03:51;100403.94;;;-0.89;100.00
64827;BME280;51265;53.972;12.286;2022-11-20T04:06:20;100413.47;;;-0.87;100.00
64827;BME280;51265;53.972;12.286;2022-11-20T04:08:46;100412.78;;;-0.82;100.00
64827;BME280;51265;53.972;12.286;2022-11-20T04:11:17;100402.28;;;-0.90;100.00
64827;BME280;51265;53.972;12.286;2022-11-20T04:13:47;100406.06;;;-0.80;100.00
64827;BME280;51265;53.972;12.286;2022-11-20T04:16:14;100395.25;;;-0.91;100.00
64827;BME280;51265;53.972;12.286;2022-11-20T04:18:40;100399.91;;;-0.98;100.00
64827;BME280;51265;53.972;12.286;2022-11-20T04:21:06;100398.38;;;-0.94;100.00
64827;BME280;51265;53.972;12.286;2022-11-20T04:23:33;100403.19;;;-0.96;100.00
64827;BME280;51265;53.972;12.286;2022-11-20T04:26:07;100403.66;;;-0.99;100.00
64827;BME280;51265;53.972;12.286;2022-11-20T04:28:34;100403.88;;;-1.01;100.00
64827;BME280;51265;53.972;12.286;2022-11-20T04:31:14;100401.91;;;-0.94;100.00
64827;BME280;51265;53.972;12.286;2022-11-20T04:33:41;100393.72;;;-0.87;100.00
64827;BME280;51265;53.972;12.286;2022-11-20T04:36:14;100403.19;;;-0.96;100.00
64827;BME280;51265;53.972;12.286;2022-11-20T04:38:42;100410.09;;;-1.01;100.00
64827;BME280;51265;53.972;12.286;2022-11-20T04:41:14;100409.97;;;-1.06;100.00
64827;BME280;51265;53.972;12.286;2022-11-20T04:43:40;100402.31;;;-1.09;100.00
64827;BME280;51265;53.972;12.286;2022-11-20T04:46:07;100406.69;;;-1.08;100.00
64827;BME280;51265;53.972;12.286;2022-11-20T04:48:34;100410.41;;;-1.09;100.00
64827;BME280;51265;53.972;12.286;2022-11-20T04:51:03;100417.94;;;-1.11;100.00
64827;BME280;51265;53.972;12.286;2022-11-20T04:53:29;100411.47;;;-1.10;100.00
64827;BME280;51265;53.972;12.286;2022-11-20T04:56:04;100419.13;;;-1.07;100.00
64827;BME280;51265;53.972;12.286;2022-11-20T04:58:31;100409.38;;;-1.08;100.00
64827;BME280;51265;53.972;12.286;2022-11-20T05:01:05;100409.81;;;-1.11;100.00
64827;BME280;51265;53.972;12.286;2022-11-20T05:03:32;100410.41;;;-1.09;100.00
64827;BME280;51265;53.972;12.286;2022-11-20T05:06:03;100415.81;;;-1.09;100.00
64827;BME280;51265;53.972;12.286;2022-11-20T05:08:30;100414.16;;;-1.10;100.00
64827;BME280;51265;53.972;12.286;2022-11-20T05:11:05;100421.97;;;-1.02;100.00
64827;BME280;51265;53.972;12.286;2022-11-20T05:13:31;100416.56;;;-1.02;100.00
64827;BME280;51265;53.972;12.286;2022-11-20T05:16:06;100417.00;;;-1.05;100.00
64827;BME280;51265;53.972;12.286;2022-11-20T05:18:34;100413.28;;;-1.04;100.00
64827;BME280;51265;53.972;12.286;2022-11-20T05:21:00;100411.97;;;-1.01;100.00
64827;BME280;51265;53.972;12.286;2022-11-20T05:23:27;100413.56;;;-0.93;100.00
64827;BME280;51265;53.972;12.286;2022-11-20T05:25:54;100411.66;;;-0.93;100.00
64827;BME280;51265;53.972;12.286;2022-11-20T05:28:20;100417.25;;;-0.88;100.00
64827;BME280;51265;53.972;12.286;2022-11-20T05:30:47;100411.78;;;-0.99;100.00
64827;BME280;51265;53.972;12.286;2022-11-20T05:33:13;100403.66;;;-0.99;100.00
64827;BME280;51265;53.972;12.286;2022-11-20T05:35:39;100399.91;;;-0.98;100.00
64827;BME280;51265;53.972;12.286;2022-11-20T05:38:05;100414.00;;;-0.96;100.00
64827;BME280;51265;53.972;12.286;2022-11-20T05:40:31;100405.31;;;-0.98;100.00
64827;BME280;51265;53.972;12.286;2022-11-20T05:42:57;100408.59;;;-0.96;100.00
64827;BME280;51265;53.972;12.286;2022-11-20T05:45:23;100398.84;;;-0.97;100.00
64827;BME280;51265;53.972;12.286;2022-11-20T05:47:49;100395.69;;;-0.94;100.00
64827;BME280;51265;53.972;12.286;2022-11-20T05:50:15;100401.84;;;-0.87;100.00
64827;BME280;51265;53.972;12.286;2022-11-20T05:52:41;100400.16;;;-0.88;100.00
64827;BME280;51265;53.972;12.286;2022-11-20T05:55:08;100402.41;;;-0.85;100.00
64827;BME280;51265;53.972;12.286;2022-11-20T05:57:34;100396.19;;;-0.86;100.00
64827;BME280;51265;53.972;12.286;2022-11-20T06:00:01;100395.69;;;-0.94;100.00
64827;BME280;51265;53.972;12.286;2022-11-20T06:02:30;100385.94;;;-0.95;100.00
64827;BME280;51265;53.972;12.286;2022-11-20T06:04:56;100380.78;;;-0.85;100.00
64827;BME280;51265;53.972;12.286;2022-11-20T06:07:22;100377.03;;;-0.84;100.00
64827;BME280;51265;53.972;12.286;2022-11-20T06:09:48;100377.25;;;-0.86;100.00
64827;BME280;51265;53.972;12.286;2022-11-20T06:12:14;100374.50;;;-0.97;100.00
64827;BME280;51265;53.972;12.286;2022-11-20T06:14:40;100374.00;;;-1.06;100.00
64827;BME280;51265;53.972;12.286;2022-11-20T06:17:06;100374.25;;;-1.08;100.00
64827;BME280;51265;53.972;12.286;2022-11-20T06:19:32;100370.94;;;-1.10;100.00
64827;BME280;51265;53.972;12.286;2022-11-20T06:21:58;100377.53;;;-1.06;100.00
64827;BME280;51265;53.972;12.286;2022-11-20T06:24:24;100370.47;;;-1.07;100.00
64827;BME280;51265;53.972;12.286;2022-11-20T06:26:51;100371.22;;;-0.99;100.00
64827;BME280;51265;53.972;12.286;2022-11-20T06:29:17;100374.38;;;-1.03;100.00
64827;BME280;51265;53.972;12.286;2022-11-20T06:31:43;100377.34;;;-0.92;100.00
64827;BME280;51265;53.972;12.286;2022-11-20T06:34:09;100378.66;;;-0.95;100.00
64827;BME280;51265;53.972;12.286;2022-11-20T06:36:35;100382.13;;;-1.06;100.00
64827;BME280;51265;53.972;12.286;2022-11-20T06:39:01;100396.59;;;-1.01;100.00
64827;BME280;51265;53.972;12.286;2022-11-20T06:41:28;100386.69;;;-1.07;100.00
64827;BME280;51265;53.972;12.286;2022-11-20T06:43:54;100395.25;;;-0.91;100.00
64827;BME280;51265;53.972;12.286;2022-11-20T06:46:20;100397.31;;;-0.93;100.00
64827;BME280;51265;53.972;12.286;2022-11-20T06:48:47;100397.69;;;-0.90;100.00
64827;BME280;51265;53.972;12.286;2022-11-20T06:51:13;100395.81;;;-0.89;100.00
64827;BME280;51265;53.972;12.286;2022-11-20T06:53:39;100395.38;;;-0.86;100.00
64827;BME280;51265;53.972;12.286;2022-11-20T06:56:06;100389.97;;;-0.86;100.00
64827;BME280;51265;53.972;12.286;2022-11-20T06:58:33;100389.66;;;-0.96;100.00
64827;BME280;51265;53.972;12.286;2022-11-20T07:01:04;100391.03;;;-0.87;100.00
64827;BME280;51265;53.972;12.286;2022-11-20T07:03:30;100392.22;;;-0.83;100.00
64827;BME280;51265;53.972;12.286;2022-11-20T07:05:58;100379.84;;;-0.91;100.00
64827;BME280;51265;53.972;12.286;2022-11-20T07:08:25;100387.56;;;-0.94;100.00
64827;BME280;51265;53.972;12.286;2022-11-20T07:10:52;100388.31;;;-0.87;100.00
64827;BME280;51265;53.972;12.286;2022-11-20T07:13:18;100386.88;;;-0.90;100.00
64827;BME280;51265;53.972;12.286;2022-11-20T07:15:44;100389.22;;;-0.93;100.00
64827;BME280;51265;53.972;12.286;2022-11-20T07:18:10;100380.66;;;-0.90;100.00
64827;BME280;51265;53.972;12.286;2022-11-20T07:20:36;100384.41;;;-0.91;100.00
64827;BME280;51265;53.972;12.286;2022-11-20T07:23:02;100377.34;;;-0.92;100.00
64827;BME280;51265;53.972;12.286;2022-11-20T07:25:28;100389.13;;;-0.87;100.00
64827;BME280;51265;53.972;12.286;2022-11-20T07:27:58;100390.19;;;-0.88;100.00
64827;BME280;51265;53.972;12.286;2022-11-20T07:30:25;100384.41;;;-0.91;100.00
64827;BME280;51265;53.972;12.286;2022-11-20T07:32:52;100378.84;;;-0.96;100.00
64827;BME280;51265;53.972;12.286;2022-11-20T07:35:19;100377.34;;;-0.92;100.00
64827;BME280;51265;53.972;12.286;2022-11-20T07:37:45;100391.72;;;-0.92;100.00
64827;BME280;51265;53.972;12.286;2022-11-20T07:40:20;100379.72;;;-0.96;100.00
64827;BME280;51265;53.972;12.286;2022-11-20T07:42:54;100383.94;;;-0.88;100.00
64827;BME280;51265;53.972;12.286;2022-11-20T07:45:22;100387.25;;;-0.86;100.00
64827;BME280;51265;53.972;12.286;2022-11-20T07:47:49;100380.34;;;-0.82;100.00
64827;BME280;51265;53.972;12.286;2022-11-20T07:50:15;100385.88;;;-0.77;100.00
64827;BME280;51265;53.972;12.286;2022-11-20T07:52:42;100385.41;;;-0.74;100.00
64827;BME280;51265;53.972;12.286;2022-11-20T07:55:09;100377.06;;;-0.72;100.00
64827;BME280;51265;53.972;12.286;2022-11-20T07:57:35;100373.88;;;-0.81;100.00
64827;BME280;51265;53.972;12.286;2022-11-20T08:00:06;100369.97;;;-0.85;100.00
64827;BME280;51265;53.972;12.286;2022-11-20T08:02:41;100374.94;;;-0.82;100.00
64827;BME280;51265;53.972;12.286;2022-11-20T08:05:10;100382.84;;;-0.69;100.00
64827;BME280;51265;53.972;12.286;2022-11-20T08:07:41;100382.72;;;-0.74;100.00
64827;BME280;51265;53.972;12.286;2022-11-20T08:10:10;100385.91;;;-0.65;100.00
64827;BME280;51265;53.972;12.286;2022-11-20T08:12:43;100378.16;;;-0.62;100.00
64827;BME280;51265;53.972;12.286;2022-11-20T08:15:28;100379.34;;;-0.58;100.00
64827;BME280;51265;53.972;12.286;2022-11-20T08:18:06;100386.53;;;-0.52;100.00
64827;BME280;51265;53.972;12.286;2022-11-20T08:20:32;100376.16;;;-0.55;100.00
64827;BME280;51265;53.972;12.286;2022-11-20T08:23:01;100383.94;;;-0.58;100.00
64827;BME280;51265;53.972;12.286;2022-11-20T08:25:31;100384.78;;;-0.58;100.00
64827;BME280;51265;53.972;12.286;2022-11-20T08:28:04;100378.69;;;-0.41;100.00
64827;BME280;51265;53.972;12.286;2022-11-20T08:30:31;100376.78;;;-0.53;100.00
64827;BME280;51265;53.972;12.286;2022-11-20T08:33:01;100370.88;;;-0.61;100.00
64827;BME280;51265;53.972;12.286;2022-11-20T08:35:28;100380.50;;;-0.65;100.00
64827;BME280;51265;53.972;12.286;2022-11-20T08:37:54;100379.72;;;-0.54;100.00
64827;BME280;51265;53.972;12.286;2022-11-20T08:40:20;100376.41;;;-0.56;100.00
64827;BME280;51265;53.972;12.286;2022-11-20T08:42:47;100377.16;;;-0.49;100.00
64827;BME280;51265;53.972;12.286;2022-11-20T08:45:15;100369.72;;;-0.54;100.00
64827;BME280;51265;53.972;12.286;2022-11-20T08:47:42;100378.88;;;-0.55;100.00
64827;BME280;51265;53.972;12.286;2022-11-20T08:50:12;100380.53;;;-0.54;100.00
64827;BME280;51265;53.972;12.286;2022-11-20T08:52:39;100384.06;;;-0.53;100.00
64827;BME280;51265;53.972;12.286;2022-11-20T08:55:06;100387.97;;;-0.49;100.00
64827;BME280;51265;53.972;12.286;2022-11-20T08:57:36;100395.38;;;-0.44;100.00
64827;BME280;51265;53.972;12.286;2022-11-20T09:00:05;100402.56;;;-0.38;100.00
64827;BME280;51265;53.972;12.286;2022-11-20T09:02:32;100402.91;;;-0.35;100.00
64827;BME280;51265;53.972;12.286;2022-11-20T09:04:58;100408.13;;;-0.33;100.00
64827;BME280;51265;53.972;12.286;2022-11-20T09:07:24;100408.31;;;-0.46;100.00
64827;BME280;51265;53.972;12.286;2022-11-20T09:09:50;100404.81;;;-0.35;100.00
64827;BME280;51265;53.972;12.286;2022-11-20T09:12:16;100401.97;;;-0.40;100.00
64827;BME280;51265;53.972;12.286;2022-11-20T09:14:53;100406.31;;;-0.39;100.00
64827;BME280;51265;53.972;12.286;2022-11-20T09:17:19;100406.22;;;-0.44;100.00
64827;BME280;51265;53.972;12.286;2022-11-20T09:19:46;100410.31;;;-0.42;100.00
64827;BME280;51265;53.972;12.286;2022-11-20T09:22:14;100399.84;;;-0.38;100.00
64827;BME280;51265;53.972;12.286;2022-11-20T09:24:40;100404.34;;;-0.32;100.00
64827;BME280;51265;53.972;12.286;2022-11-20T09:27:06;100400.69;;;-0.26;100.00
64827;BME280;51265;53.972;12.286;2022-11-20T09:29:32;100404.59;;;-0.22;100.00
64827;BME280;51265;53.972;12.286;2022-11-20T09:32:00;100411.09;;;-0.11;100.00
64827;BME280;51265;53.972;12.286;2022-11-20T09:34:27;100407.06;;;-0.09;100.00
64827;BME280;51265;53.972;12.286;2022-11-20T09:36:53;100407.78;;;-0.13;100.00
64827;BME280;51265;53.972;12.286;2022-11-20T09:39:20;100403.78;;;-0.11;100.00
64827;BME280;51265;53.972;12.286;2022-11-20T09:44:38;100410.41;;;0.05;100.00
64827;BME280;51265;53.972;12.286;2022-11-20T09:55:19;100420.25;;;0.58;100.00
64827;BME280;51265;53.972;12.286;2022-11-20T09:57:48;100423.81;;;0.59;100.00
64827;BME280;51265;53.972;12.286;2022-11-20T10:00:17;100412.03;;;0.41;100.00
64827;BME280;51265;53.972;12.286;2022-11-20T10:05:41;100417.81;;;0.33;100.00
64827;BME280;51265;53.972;12.286;2022-11-20T10:10:46;100415.44;;;0.48;100.00
64827;BME280;51265;53.972;12.286;2022-11-20T10:22:35;100392.13;;;0.24;100.00
64827;BME280;51265;53.972;12.286;2022-11-20T10:30:31;100389.56;;;0.17;100.00
64827;BME280;51265;53.972;12.286;2022-11-20T10:33:13;100382.84;;;0.20;100.00
64827;BME280;51265;53.972;12.286;2022-11-20T10:35:45;100378.38;;;0.26;100.00
64827;BME280;51265;53.972;12.286;2022-11-20T10:38:23;100378.25;;;0.20;100.00
64827;BME280;51265;53.972;12.286;2022-11-20T10:40:59;100373.44;;;0.22;100.00
64827;BME280;51265;53.972;12.286;2022-11-20T10:43:46;100370.59;;;0.17;100.00
64827;BME280;51265;53.972;12.286;2022-11-20T10:46:17;100369.44;;;0.13;100.00
64827;BME280;51265;53.972;12.286;2022-11-20T10:48:45;100380.84;;;0.27;100.00
64827;BME280;51265;53.972;12.286;2022-11-20T10:51:31;100376.94;;;0.35;100.00
64827;BME280;51265;53.972;12.286;2022-11-20T10:56:51;100367.19;;;0.22;100.00
64827;BME280;51265;53.972;12.286;2022-11-20T11:02:18;100356.34;;;0.10;100.00
64827;BME280;51265;53.972;12.286;2022-11-20T11:04:55;100345.03;;;0.25;100.00
64827;BME280;51265;53.972;12.286;2022-11-20T11:07:38;100340.31;;;0.32;100.00
64827;BME280;51265;53.972;12.286;2022-11-20T11:10:20;100341.00;;;0.51;100.00
64827;BME280;51265;53.972;12.286;2022-11-20T11:12:48;100333.31;;;0.60;100.00
64827;BME280;51265;53.972;12.286;2022-11-20T11:15:40;100321.38;;;0.72;100.00
64827;BME280;51265;53.972;12.286;2022-11-20T11:18:10;100306.22;;;0.60;100.00
64827;BME280;51265;53.972;12.286;2022-11-20T11:20:37;100299.19;;;0.47;100.00
64827;BME280;51265;53.972;12.286;2022-11-20T11:23:03;100311.63;;;0.60;100.00
64827;BME280;51265;53.972;12.286;2022-11-20T11:25:32;100321.53;;;1.11;100.00
64827;BME280;51265;53.972;12.286;2022-11-20T11:28:19;100309.78;;;1.06;100.00
64827;BME280;51265;53.972;12.286;2022-11-20T11:30:46;100304.06;;;0.90;100.00
64827;BME280;51265;53.972;12.286;2022-11-20T11:33:28;100292.28;;;0.68;100.00
64827;BME280;51265;53.972;12.286;2022-11-20T11:35:57;100282.75;;;0.54;100.00
64827;BME280;51265;53.972;12.286;2022-11-20T11:38:42;100278.09;;;0.37;100.00
64827;BME280;51265;53.972;12.286;2022-11-20T11:41:16;100275.63;;;0.36;100.00
64827;BME280;51265;53.972;12.286;2022-11-20T11:43:55;100288.59;;;0.74;100.00
64827;BME280;51265;53.972;12.286;2022-11-20T11:46:51;100305.13;;;1.18;100.00
64827;BME280;51265;53.972;12.286;2022-11-20T11:49:19;100307.84;;;1.52;100.00
64827;BME280;51265;53.972;12.286;2022-11-20T11:54:18;100314.50;;;1.94;100.00
64827;BME280;51265;53.972;12.286;2022-11-20T11:56:46;100305.63;;;1.82;100.00
64827;BME280;51265;53.972;12.286;2022-11-20T11:59:21;100298.06;;;1.84;100.00
64827;BME280;51265;53.972;12.286;2022-11-20T12:01:55;100293.34;;;1.80;100.00
64827;BME280;51265;53.972;12.286;2022-11-20T12:04:43;100257.94;;;1.19;100.00
64827;BME280;51265;53.972;12.286;2022-11-20T12:07:20;100246.06;;;1.08;100.00
64827;BME280;51265;53.972;12.286;2022-11-20T12:09:52;100232.91;;;1.00;100.00
64827;BME280;51265;53.972;12.286;2022-11-20T12:12:24;100227.28;;;1.02;100.00
64827;BME280;51265;53.972;12.286;2022-11-20T12:14:55;100225.53;;;1.12;100.00
64827;BME280;51265;53.972;12.286;2022-11-20T12:17:23;100220.84;;;1.08;100.00
64827;BME280;51265;53.972;12.286;2022-11-20T12:19:50;100215.34;;;1.03;100.00
64827;BME280;51265;53.972;12.286;2022-11-20T12:22:37;100207.81;;;1.05;100.00
64827;BME280;51265;53.972;12.286;2022-11-20T12:25:11;100203.94;;;1.34;100.00
64827;BME280;51265;53.972;12.286;2022-11-20T12:30:32;100190.34;;;1.34;100.00
64827;BME280;51265;53.972;12.286;2022-11-20T12:41:06;100151.00;;;1.54;100.00
64827;BME280;51265;53.972;12.286;2022-11-20T12:44:06;100151.75;;;1.71;100.00
64827;BME280;51265;53.972;12.286;2022-11-20T12:47:12;100144.06;;;2.07;100.00
64827;BME280;51265;53.972;12.286;2022-11-20T12:52:47;100112.19;;;1.53;100.00
64827;BME280;51265;53.972;12.286;2022-11-20T12:58:12;100099.25;;;1.38;100.00
64827;BME280;51265;53.972;12.286;2022-11-20T13:00:59;100095.72;;;1.60;100.00
64827;BME280;51265;53.972;12.286;2022-11-20T13:03:47;100098.25;;;1.88;100.00
64827;BME280;51265;53.972;12.286;2022-11-20T13:06:18;100095.34;;;2.00;100.00
64827;BME280;51265;53.972;12.286;2022-11-20T13:08:55;100094.66;;;2.10;100.00
64827;BME280;51265;53.972;12.286;2022-11-20T13:11:41;100084.94;;;2.14;100.00
64827;BME280;51265;53.972;12.286;2022-11-20T13:14:20;100079.69;;;2.07;100.00
64827;BME280;51265;53.972;12.286;2022-11-20T13:16:57;100065.88;;;1.87;100.00
64827;BME280;51265;53.972;12.286;2022-11-20T13:19:25;100065.16;;;1.96;100.00
64827;BME280;51265;53.972;12.286;2022-11-20T13:21:51;100057.50;;;1.88;100.00
64827;BME280;51265;53.972;12.286;2022-11-20T13:24:25;100051.50;;;1.86;100.00
64827;BME280;51265;53.972;12.286;2022-11-20T13:29:37;100035.38;;;1.80;100.00
64827;BME280;51265;53.972;12.286;2022-11-20T13:32:14;100036.56;;;1.62;100.00
64827;BME280;51265;53.972;12.286;2022-11-20T13:34:55;100026.38;;;1.47;100.00
64827;BME280;51265;53.972;12.286;2022-11-20T13:37:31;100018.03;;;1.32;100.00
64827;BME280;51265;53.972;12.286;2022-11-20T13:42:39;100011.31;;;0.95;100.00
64827;BME280;51265;53.972;12.286;2022-11-20T13:45:21;100008.09;;;0.98;100.00
64827;BME280;51265;53.972;12.286;2022-11-20T13:47:49;100019.53;;;1.01;100.00
64827;BME280;51265;53.972;12.286;2022-11-20T13:50:15;100008.56;;;0.73;100.00
64827;BME280;51265;53.972;12.286;2022-11-20T14:00:58;100011.28;;;0.06;100.00
64827;BME280;51265;53.972;12.286;2022-11-20T14:03:30;100023.13;;;0.00;100.00
64827;BME280;51265;53.972;12.286;2022-11-20T14:06:01;100016.00;;;-0.18;100.00